createdAt,value
2023-11-08T04:22:05.224Z,100012.31
2023-11-08T04:25:08.375Z,100022.09
2023-11-08T04:28:10.543Z,100029.06
2023-11-08T04:31:13.124Z,100034.06
2023-11-08T04:34:15.425Z,100041.31
2023-11-08T04:37:20.646Z,100042.56
2023-11-08T04:40:23.544Z,100033.37
2023-11-08T04:43:26.089Z,100040.87
2023-11-08T04:46:28.312Z,100041.22
2023-11-08T04:49:30.794Z,100033.16
2023-11-08T04:52:33.643Z,100046.41
2023-11-08T04:55:36.213Z,100048.59
2023-11-08T04:58:38.390Z,100042.47
2023-11-08T05:01:42.892Z,100047.69
2023-11-08T05:04:48.721Z,100041.94
2023-11-08T05:07:51.385Z,100066.16
2023-11-08T05:10:53.549Z,100074.13
2023-11-08T05:13:56.048Z,100074.84
2023-11-08T05:16:58.237Z,100076.09
2023-11-08T05:20:00.657Z,100084.25
2023-11-08T05:23:02.855Z,100084.19
2023-11-08T05:26:07.434Z,100084.06
2023-11-08T05:29:09.961Z,100088.37
2023-11-08T05:32:12.472Z,100087.56
2023-11-08T05:35:15.237Z,100087.72
2023-11-08T05:38:17.777Z,100090.31
2023-11-08T05:41:20.548Z,100090.44
2023-11-08T05:44:23.255Z,100093.19
2023-11-08T05:47:25.630Z,100114.44
2023-11-08T05:50:28.071Z,100093.91
2023-11-08T05:53:30.938Z,100097.22
2023-11-08T05:56:33.673Z,100114.69
2023-11-08T05:59:36.732Z,100101.97
2023-11-08T06:02:39.224Z,100114.78
2023-11-08T06:05:41.852Z,100119.44
2023-11-08T06:08:49.740Z,100118.44
2023-11-08T06:11:54.759Z,100132.44
2023-11-08T06:14:57.231Z,100135.37
2023-11-08T06:18:01.723Z,100136.38
2023-11-08T06:21:07.399Z,100145.47
2023-11-08T06:24:19.175Z,100143.88
2023-11-08T06:27:21.833Z,100157.41
2023-11-08T06:30:24.734Z,100144.59
2023-11-08T06:33:26.987Z,100157.06
2023-11-08T06:36:30.002Z,100165.41
2023-11-08T06:39:32.577Z,100168.81
2023-11-08T06:42:35.273Z,100168.97
2023-11-08T06:45:37.825Z,100177.50
2023-11-08T06:48:40.377Z,100205.56
2023-11-08T06:51:42.755Z,100193.09
2023-11-08T06:54:45.494Z,100205.28
2023-11-08T06:57:48.469Z,100196.06
2023-11-08T07:00:55.607Z,100222.00
2023-11-08T07:04:03.332Z,100218.94
2023-11-08T07:07:06.331Z,100220.69
2023-11-08T07:10:12.197Z,100229.84
2023-11-08T07:13:14.670Z,100238.03
2023-11-08T07:16:16.877Z,100236.22
2023-11-08T07:19:20.263Z,100241.06
2023-11-08T07:22:26.214Z,100242.59
2023-11-08T07:25:28.683Z,100253.38
2023-11-08T07:28:31.068Z,100256.56
2023-11-08T07:31:34.186Z,100257.91
2023-11-08T07:34:36.460Z,100257.56
2023-11-08T07:37:42.486Z,100253.81
2023-11-08T07:40:45.441Z,100252.41
2023-11-08T07:43:48.228Z,100257.87
2023-11-08T07:46:50.563Z,100267.00
2023-11-08T07:49:53.139Z,100251.56
2023-11-08T07:52:55.526Z,100242.09
2023-11-08T07:55:59.809Z,100239.28
2023-11-08T07:59:02.397Z,100235.03
2023-11-08T08:02:05.164Z,100219.03
2023-11-08T08:05:10.137Z,100231.06
2023-11-08T08:08:15.660Z,100228.16
2023-11-08T08:11:18.563Z,100231.75
2023-11-08T08:14:20.886Z,100237.06
2023-11-08T08:17:23.374Z,100228.97
2023-11-08T08:20:26.360Z,100220.75
2023-11-08T08:23:29.770Z,100242.84
2023-11-08T08:26:32.352Z,100222.38
2023-11-08T08:29:35.056Z,100234.81
2023-11-08T08:32:37.538Z,100239.03
2023-11-08T08:35:40.204Z,100242.97
2023-11-08T08:38:44.253Z,100229.56
2023-11-08T08:41:47.114Z,100254.72
2023-11-08T08:44:50.569Z,100243.50
2023-11-08T08:47:55.024Z,100236.09
2023-11-08T08:50:57.673Z,100235.16
2023-11-08T08:54:00.432Z,100229.41
2023-11-08T08:57:03.407Z,100247.72
2023-11-08T09:00:08.889Z,100255.53
2023-11-08T09:03:11.357Z,100235.06
2023-11-08T09:06:14.177Z,100244.03
2023-11-08T09:09:16.833Z,100247.50
2023-11-08T09:12:19.271Z,100257.44
2023-11-08T09:15:21.488Z,100256.09
2023-11-08T09:18:26.499Z,100239.59
2023-11-08T09:21:30.142Z,100261.56
2023-11-08T09:24:33.717Z,100269.38
2023-11-08T09:27:39.087Z,100288.94
2023-11-08T09:30:41.790Z,100275.34
2023-11-08T09:33:44.127Z,100284.09
2023-11-08T09:36:48.199Z,100297.63
2023-11-08T09:39:51.447Z,100302.09
2023-11-08T09:42:55.728Z,100296.88
2023-11-08T09:45:58.918Z,100311.69
2023-11-08T09:49:01.958Z,100303.88
2023-11-08T09:52:04.437Z,100305.16
2023-11-08T09:55:07.515Z,100316.75
2023-11-08T09:58:13.895Z,100312.16
2023-11-08T10:01:17.386Z,100310.69
2023-11-08T10:04:26.860Z,100303.47
2023-11-08T10:07:34.530Z,100307.63
2023-11-08T10:10:38.345Z,100305.00
2023-11-08T10:13:50.131Z,100303.88
2023-11-08T10:16:55.530Z,100294.78
2023-11-08T10:20:01.240Z,100305.37
2023-11-08T10:23:07.540Z,100302.50
2023-11-08T10:26:14.878Z,100305.25
2023-11-08T10:29:18.188Z,100294.94
2023-11-08T10:32:26.375Z,100302.75
2023-11-08T10:35:36.904Z,100285.59
2023-11-08T10:38:40.435Z,100313.97
2023-11-08T10:41:45.461Z,100295.44
2023-11-08T10:44:47.713Z,100298.66
2023-11-08T10:47:50.792Z,100305.03
2023-11-08T10:50:54.250Z,100308.06
2023-11-08T10:53:57.416Z,100308.06
2023-11-08T10:57:04.078Z,100326.81
2023-11-08T11:00:10.605Z,100365.41
2023-11-08T11:03:15.449Z,100356.88
2023-11-08T11:06:19.540Z,100371.16
2023-11-08T11:09:22.732Z,100477.25
2023-11-08T11:12:57.553Z,100639.47
2023-11-08T11:16:30.789Z,100635.97
2023-11-08T11:19:42.761Z,100423.91
2023-11-08T11:22:45.169Z,100566.66
2023-11-08T11:25:51.632Z,100676.28
2023-11-08T11:28:56.744Z,100611.53
2023-11-08T11:32:04.849Z,100698.53
2023-11-08T11:35:07.342Z,100893.97
2023-11-08T11:38:18.329Z,100924.34
2023-11-08T11:41:24.520Z,100801.62
2023-11-08T11:44:45.045Z,100784.91
2023-11-08T11:47:52.051Z,100705.66
2023-11-08T11:50:55.595Z,100483.00
2023-11-08T11:53:58.115Z,100489.38
2023-11-08T11:57:00.705Z,100299.22
2023-11-08T12:00:15.785Z,100173.50
2023-11-08T12:03:18.419Z,100153.44
2023-11-08T12:06:22.305Z,100238.16
2023-11-08T12:09:25.212Z,100304.69
2023-11-08T12:12:28.628Z,100324.03
2023-11-08T12:15:33.395Z,100309.00
2023-11-08T12:18:35.973Z,100341.91
2023-11-08T12:21:38.585Z,100314.16
2023-11-08T12:24:40.881Z,100327.53
2023-11-08T12:27:44.160Z,100342.78
2023-11-08T12:31:04.842Z,100332.06
2023-11-08T12:34:10.699Z,100331.97
2023-11-08T12:37:13.706Z,100355.56
2023-11-08T12:40:25.637Z,100339.19
2023-11-08T12:43:58.003Z,100328.37
2023-11-08T12:46:54.957Z,100351.50
2023-11-08T12:50:11.879Z,100314.94
2023-11-08T12:53:14.386Z,100336.06
2023-11-08T12:56:16.677Z,100346.50
2023-11-08T12:59:21.085Z,100359.31
2023-11-08T13:02:23.292Z,100333.28
2023-11-08T13:05:26.208Z,100348.75
2023-11-08T13:08:32.457Z,100344.63
2023-11-08T13:11:35.094Z,100345.91
2023-11-08T13:14:37.367Z,100343.88
2023-11-08T13:17:39.948Z,100350.34
2023-11-08T13:20:46.907Z,100338.25
2023-11-08T13:24:02.636Z,100335.00
2023-11-08T13:27:15.059Z,100332.47
2023-11-08T13:30:18.771Z,100331.28
2023-11-08T13:33:21.547Z,100322.56
2023-11-08T13:36:28.867Z,100334.72
2023-11-08T13:39:31.861Z,100337.47
2023-11-08T13:42:35.129Z,100344.78
2023-11-08T13:45:37.604Z,100365.81
2023-11-08T13:48:40.212Z,100378.59
2023-11-08T13:51:42.555Z,100378.38
2023-11-08T13:54:45.156Z,100384.56
2023-11-08T13:57:47.362Z,100404.06
2023-11-08T14:00:53.247Z,100401.88
2023-11-08T14:03:56.064Z,100408.25
2023-11-08T14:06:58.465Z,100409.09
2023-11-08T14:10:02.190Z,100411.69
2023-11-08T14:13:04.858Z,100407.13
2023-11-08T14:16:08.858Z,100415.06
2023-11-08T14:19:11.504Z,100407.78
2023-11-08T14:22:14.218Z,100402.56
2023-11-08T14:25:16.475Z,100410.13
2023-11-08T14:28:19.888Z,100415.53
2023-11-08T14:31:23.844Z,100419.59
2023-11-08T14:34:27.430Z,100422.31
2023-11-08T14:37:30.879Z,100428.09
2023-11-08T14:40:33.429Z,100422.06
2023-11-08T14:43:35.693Z,100427.66
2023-11-08T14:46:38.781Z,100420.69
2023-11-08T14:49:41.196Z,100430.13
2023-11-08T14:52:43.733Z,100433.44
2023-11-08T14:55:47.240Z,100418.78
2023-11-08T14:58:50.714Z,100423.87
2023-11-08T15:01:54.082Z,100418.94
2023-11-08T15:04:56.614Z,100427.31
2023-11-08T15:09:47.911Z,100430.72
2023-11-08T15:11:21.733Z,100436.03
2023-11-08T15:14:24.686Z,100430.22
2023-11-08T15:17:27.230Z,100428.41
2023-11-08T15:20:29.526Z,100434.84
2023-11-08T15:23:32.164Z,100435.66
2023-11-08T15:26:34.679Z,100436.03
2023-11-08T15:29:37.340Z,100434.63
2023-11-08T15:32:42.246Z,100433.84
2023-11-08T15:35:44.763Z,100427.59
2023-11-08T15:38:53.942Z,100431.03
2023-11-08T15:41:56.825Z,100439.00
2023-11-08T15:45:00.136Z,100441.13
2023-11-08T15:48:03.097Z,100431.91
2023-11-08T15:51:05.433Z,100421.41
2023-11-08T15:54:07.983Z,100427.31
2023-11-08T15:57:11.604Z,100422.88
2023-11-08T16:00:14.664Z,100418.22
2023-11-08T16:03:17.196Z,100417.75
2023-11-08T16:06:20.289Z,100410.63
2023-11-08T16:09:22.891Z,100425.25
2023-11-08T16:12:25.944Z,100414.34
2023-11-08T16:15:28.385Z,100425.41
2023-11-08T16:18:30.921Z,100438.78
2023-11-08T16:21:34.436Z,100437.37
2023-11-08T16:24:38.596Z,100441.50
